createdAt,value
2024-01-25T00:00:28.787Z,78.33
2024-01-25T00:05:31.006Z,77.59
2024-01-25T00:10:33.266Z,77.49
2024-01-25T00:16:35.332Z,76.55
2024-01-25T00:22:57.243Z,76.16
2024-01-25T00:29:19.115Z,75.23
2024-01-25T00:35:41.159Z,75.42
2024-01-25T00:42:03.216Z,75.75
2024-01-25T00:47:28.156Z,76.10
2024-01-25T00:52:30.728Z,75.90
2024-01-25T00:57:33.806Z,76.00
2024-01-25T01:02:41.451Z,75.35
2024-01-25T01:07:44.007Z,75.54
2024-01-25T01:12:46.464Z,75.56
2024-01-25T01:18:48.547Z,75.99
2024-01-25T01:25:10.493Z,76.07
2024-01-25T01:30:32.753Z,75.85
2024-01-25T01:36:34.791Z,75.90
2024-01-25T01:42:56.667Z,75.78
2024-01-25T01:49:28.866Z,75.80
2024-01-25T01:54:51.143Z,75.43
2024-01-25T01:59:53.552Z,75.07
2024-01-25T02:04:55.769Z,74.96
2024-01-25T02:10:57.582Z,74.94
2024-01-25T02:16:21.569Z,72.89
2024-01-25T02:21:23.913Z,72.25
2024-01-25T02:26:26.554Z,71.99
2024-01-25T02:31:29.112Z,72.21
2024-01-25T02:37:30.978Z,71.69
2024-01-25T02:43:52.870Z,71.61
2024-01-25T02:50:17.706Z,70.68
2024-01-25T02:56:39.539Z,70.94
2024-01-25T03:03:04.325Z,71.30
2024-01-25T03:09:06.184Z,71.48
2024-01-25T03:14:08.509Z,71.57
2024-01-25T03:19:11.958Z,71.98
2024-01-25T03:24:15.056Z,71.86
2024-01-25T03:29:17.111Z,71.68
2024-01-25T03:35:19.319Z,71.98
2024-01-25T03:41:41.148Z,71.92
2024-01-25T03:48:03.101Z,72.37
2024-01-25T03:54:24.946Z,72.06
2024-01-25T04:00:47.015Z,72.71
2024-01-25T04:06:09.268Z,73.10
2024-01-25T04:12:11.294Z,73.68
2024-01-25T04:18:33.348Z,74.12
2024-01-25T04:23:55.793Z,74.24
2024-01-25T04:28:58.222Z,74.37
2024-01-25T04:35:00.482Z,73.82
2024-01-25T04:41:22.537Z,74.47
2024-01-25T04:46:44.778Z,74.50
2024-01-25T04:51:47.002Z,74.13
2024-01-25T04:57:48.962Z,73.79
2024-01-25T05:03:10.862Z,73.79
2024-01-25T05:09:22.761Z,73.64
2024-01-25T05:15:44.806Z,73.49
2024-01-25T05:22:06.686Z,74.35
2024-01-25T05:28:28.578Z,75.26
2024-01-25T05:34:50.531Z,76.09
2024-01-25T05:40:30.242Z,76.48
2024-01-25T05:45:32.587Z,76.67
2024-01-25T05:50:35.417Z,77.07
2024-01-25T05:55:37.635Z,76.94
2024-01-25T06:00:40.054Z,76.52
2024-01-25T06:06:43.158Z,76.40
2024-01-25T06:13:42.600Z,75.62
2024-01-25T07:04:17.942Z,71.83
2024-01-25T07:11:10.513Z,73.57
2024-01-25T07:18:13.958Z,75.83
2024-01-25T07:25:08.247Z,77.48
2024-01-25T07:32:12.581Z,78.91
2024-01-25T07:39:16.289Z,79.01
2024-01-25T07:46:08.976Z,78.96
2024-01-25T07:52:55.396Z,78.78
2024-01-25T07:59:57.934Z,78.40
2024-01-25T08:06:33.532Z,77.83
2024-01-25T08:13:54.430Z,77.27
2024-01-25T08:20:59.114Z,75.96
2024-01-25T08:28:06.644Z,75.23
2024-01-25T08:35:10.416Z,74.68
2024-01-25T08:42:10.262Z,73.87
2024-01-25T08:49:17.235Z,73.07
2024-01-25T08:56:37.976Z,73.51
2024-01-25T09:03:43.206Z,72.63
2024-01-25T09:11:06.816Z,72.08
2024-01-25T09:17:24.950Z,71.73
2024-01-25T09:23:43.994Z,71.63
2024-01-25T09:30:36.600Z,71.65
2024-01-25T09:37:23.513Z,71.18
2024-01-25T09:44:03.886Z,70.81
2024-01-25T09:51:07.852Z,71.10
2024-01-25T09:57:51.482Z,70.39
2024-01-25T10:04:04.119Z,70.27
2024-01-25T10:11:22.902Z,70.15
2024-01-25T10:18:30.041Z,70.00
2024-01-25T10:25:34.316Z,70.91
2024-01-25T10:32:43.004Z,71.57
2024-01-25T10:40:12.662Z,71.26
2024-01-25T10:46:46.155Z,71.01
2024-01-25T11:07:38.881Z,69.41
2024-01-25T11:14:33.059Z,68.54
2024-01-25T11:21:37.450Z,67.89
2024-01-25T11:29:01.476Z,68.01
2024-01-25T11:36:10.538Z,68.25
2024-01-25T11:43:18.137Z,68.75
2024-01-25T11:50:12.721Z,70.33
2024-01-25T11:56:59.625Z,70.33
2024-01-25T12:03:59.342Z,70.66
2024-01-25T12:10:13.259Z,70.47
2024-01-25T12:17:00.034Z,70.48
2024-01-25T12:23:35.288Z,71.35
2024-01-25T12:30:27.118Z,71.08
2024-01-25T12:37:05.003Z,71.36
2024-01-25T12:43:22.312Z,71.29
2024-01-25T12:50:26.136Z,69.96
2024-01-25T12:57:28.769Z,69.83
2024-01-25T13:04:19.713Z,70.34
2024-01-25T13:11:22.239Z,70.72
2024-01-25T13:18:18.545Z,71.31
2024-01-25T13:25:22.594Z,71.50
2024-01-25T13:32:46.685Z,72.28
2024-01-25T13:40:11.707Z,72.09
2024-01-25T13:46:00.575Z,72.25
2024-01-25T13:52:24.956Z,72.20
2024-01-25T13:59:17.647Z,72.27
2024-01-25T14:06:10.549Z,71.88
2024-01-25T14:11:44.265Z,71.51
2024-01-25T14:18:08.610Z,70.80
2024-01-25T14:24:04.904Z,70.41
2024-01-25T14:29:37.719Z,70.06
2024-01-25T14:36:01.643Z,69.51
2024-01-25T14:43:00.421Z,69.48
2024-01-25T14:49:56.261Z,69.39
2024-01-25T14:57:00.052Z,69.58
2024-01-25T15:03:27.530Z,69.46
2024-01-25T15:10:32.498Z,69.73
2024-01-25T15:17:24.537Z,69.08
2024-01-25T15:24:24.093Z,69.58
2024-01-25T15:31:06.382Z,69.98
2024-01-25T15:37:45.696Z,70.04
2024-01-25T15:44:27.757Z,70.40
2024-01-25T15:51:10.771Z,70.31
2024-01-25T15:56:54.053Z,70.30
2024-01-25T16:03:20.372Z,70.31
2024-01-25T16:10:41.066Z,70.72
2024-01-25T16:17:27.184Z,70.89
2024-01-25T16:23:56.896Z,70.99
2024-01-25T16:30:08.822Z,71.04
2024-01-25T16:36:14.599Z,71.01
2024-01-25T16:43:18.283Z,71.28
2024-01-25T16:50:12.113Z,71.54
2024-01-25T16:57:05.061Z,71.97
2024-01-25T17:02:45.530Z,72.55
2024-01-25T17:09:30.285Z,72.76
2024-01-25T17:15:45.234Z,72.96
2024-01-25T17:22:01.569Z,73.28
2024-01-25T17:28:09.649Z,73.33
2024-01-25T17:35:17.136Z,73.61
2024-01-25T17:41:40.819Z,73.64
2024-01-25T17:48:11.691Z,73.93
2024-01-25T17:55:04.050Z,74.43
2024-01-25T18:02:27.792Z,75.07
2024-01-25T18:09:13.778Z,75.42
2024-01-25T18:15:59.779Z,76.07
2024-01-25T18:22:47.027Z,76.76
2024-01-25T18:29:30.428Z,77.04
2024-01-25T18:36:38.011Z,77.50
2024-01-25T18:43:25.203Z,77.76
2024-01-25T18:50:08.954Z,78.20
2024-01-25T18:56:57.108Z,78.31
2024-01-25T19:04:20.767Z,78.33
2024-01-25T19:10:25.670Z,78.35
2024-01-25T19:16:04.756Z,78.50
2024-01-25T19:22:29.474Z,78.61
2024-01-25T19:28:17.268Z,78.83
2024-01-25T19:33:26.601Z,78.75
2024-01-25T19:38:53.121Z,79.02
2024-01-25T19:44:01.887Z,79.06
2024-01-25T19:50:08.682Z,79.22
2024-01-25T19:57:34.665Z,79.45
2024-01-25T20:03:56.735Z,79.66
2024-01-25T20:09:52.146Z,79.51
2024-01-25T20:16:51.731Z,79.62
2024-01-25T20:23:19.085Z,79.62
2024-01-25T20:29:09.056Z,79.57
2024-01-25T20:35:52.561Z,79.48
2024-01-25T20:42:30.291Z,79.69
2024-01-25T20:48:56.035Z,79.47
2024-01-25T20:54:04.552Z,79.86
2024-01-25T20:59:11.274Z,79.77
2024-01-25T21:04:17.150Z,79.94
2024-01-25T21:09:26.551Z,79.84
2024-01-25T21:14:38.034Z,79.93
2024-01-25T21:20:40.442Z,79.90
2024-01-25T21:27:06.273Z,80.14
2024-01-25T21:33:29.411Z,80.09
2024-01-25T21:39:51.980Z,80.41
2024-01-25T21:45:17.895Z,80.65
2024-01-25T21:51:01.836Z,81.08
2024-01-25T21:56:51.271Z,81.49
2024-01-25T22:02:00.145Z,81.46
2024-01-25T22:07:06.662Z,81.59
2024-01-25T22:12:10.788Z,81.71
2024-01-25T22:18:14.397Z,81.54
2024-01-25T22:25:24.915Z,81.52
2024-01-25T22:32:02.020Z,81.49
2024-01-25T22:38:48.570Z,81.44
2024-01-25T22:45:28.485Z,81.66
2024-01-25T22:52:32.520Z,81.96
2024-01-25T22:59:19.938Z,82.34
2024-01-25T23:05:48.755Z,82.83
2024-01-25T23:12:34.672Z,83.10
2024-01-25T23:19:58.665Z,83.53
2024-01-25T23:26:45.578Z,83.62
2024-01-25T23:33:49.240Z,83.34
2024-01-25T23:41:06.510Z,83.39
2024-01-25T23:47:33.324Z,84.11
2024-01-25T23:54:39.158Z,84.04
